This is the latest recevied weather packets stored in our database for station/object SR2CPA-13. If no packets are shown the sender has not sent any weather packets the latest 10 day(s).
| Time | Temp. | Humidity | Pressure | Rain* | Wind** | Luminosity | Snow |
|---|---|---|---|---|---|---|---|
| 1777459485 | 8.89° C | 45% | 0 hPa | 0 mm | - | - | - |
| 1777458825 | 8.89° C | 45% | 0 hPa | 0 mm | - | - | - |
| 1777458225 | 9.44° C | 45% | 0 hPa | 0 mm | - | - | - |
| 1777457625 | 8.89° C | 45% | 0 hPa | 0 mm | - | - | - |
| 1777457005 | 8.33° C | 44% | 0 hPa | 0 mm | - | - | - |
| 1777456385 | 9.44° C | 43% | 0 hPa | 0 mm | - | - | - |
| 1777455785 | 8.89° C | 44% | 0 hPa | 0 mm | - | - | - |
| 1777455165 | 10° C | 41% | 0 hPa | 0 mm | - | - | - |
| 1777454465 | 10° C | 42% | 0 hPa | 0 mm | - | - | - |
| 1777453845 | 8.89° C | 43% | 0 hPa | 0 mm | - | - | - |
| 1777453245 | 8.89° C | 43% | 0 hPa | 0 mm | - | - | - |
| 1777452645 | 8.33° C | 43% | 0 hPa | 0 mm | - | - | - |
| 1777452005 | 8.89° C | 42% | 0 hPa | 0 mm | - | - | - |
| 1777451285 | 8.89° C | 42% | 0 hPa | 0 mm | - | - | - |
| 1777450665 | 9.44° C | 42% | 0 hPa | 0 mm | - | - | - |
| 1777450065 | 8.89° C | 43% | 0 hPa | 0 mm | - | - | - |
| 1777449425 | 9.44° C | 42% | 0 hPa | 0 mm | - | - | - |
| 1777448805 | 8.89° C | 42% | 0 hPa | 0 mm | - | - | - |
| 1777448205 | 8.33° C | 44% | 0 hPa | 0 mm | - | - | - |
| 1777447564 | 8.33° C | 44% | 0 hPa | 0 mm | - | - | - |
| 1777446944 | 7.78° C | 47% | 0 hPa | 0 mm | - | - | - |
| 1777446345 | 7.78° C | 47% | 0 hPa | 0 mm | - | - | - |
| 1777445745 | 7.78° C | 49% | 0 hPa | 0 mm | - | - | - |
| 1777445105 | 7.22° C | 49% | 0 hPa | 0 mm | - | - | - |
| 1777444445 | 6.67° C | 51% | 0 hPa | 0 mm | - | - | - |
* Rain latest hour (hover to see other rain measurements)
** Current wind speed in m/s (hover to see current wind gust speed)